createdAt,value
2022-09-07T00:01:08.640Z,101179.03
2022-09-07T00:06:12.934Z,101178.13
2022-09-07T00:11:18.045Z,101169.16
2022-09-07T00:16:23.286Z,101165.38
2022-09-07T00:21:25.829Z,101171.75
2022-09-07T00:26:29.831Z,101175.06
2022-09-07T00:31:32.316Z,101175.88
2022-09-07T00:36:34.494Z,101202.56
2022-09-07T00:41:36.629Z,101176.88
2022-09-07T00:46:38.805Z,101169.66
2022-09-07T00:51:46.067Z,101153.78
2022-09-07T00:56:50.031Z,101164.13
2022-09-07T01:01:53.122Z,101177.84
2022-09-07T01:06:56.206Z,101216.75
2022-09-07T01:12:00.775Z,101234.47
2022-09-07T01:17:34.884Z,101293.91
2022-09-07T01:22:54.406Z,101364.50
2022-09-07T01:28:08.498Z,101382.38
2022-09-07T01:33:27.619Z,101372.16
2022-09-07T01:38:42.899Z,101375.91
2022-09-07T01:43:50.927Z,101328.91
2022-09-07T01:48:56.834Z,101306.34
2022-09-07T01:54:07.799Z,101283.97
2022-09-07T01:59:25.019Z,101258.88
2022-09-07T02:04:35.827Z,101269.69
2022-09-07T02:09:44.067Z,101262.63
2022-09-07T02:14:57.259Z,101281.44
2022-09-07T02:20:08.855Z,101263.31
2022-09-07T02:25:16.308Z,101286.00
2022-09-07T02:30:18.527Z,101276.34
2022-09-07T02:35:20.926Z,101263.34
2022-09-07T02:40:23.083Z,101264.13
2022-09-07T02:45:25.795Z,101264.44
2022-09-07T02:50:46.801Z,101276.09
2022-09-07T02:56:07.634Z,101270.81
2022-09-07T03:01:26.361Z,101255.59
2022-09-07T03:06:47.853Z,101248.16
2022-09-07T03:11:50.691Z,101235.06
2022-09-07T03:16:56.383Z,101234.38
2022-09-07T03:21:58.629Z,101222.81
2022-09-07T03:27:01.047Z,101217.06
2022-09-07T03:32:03.278Z,101214.91
2022-09-07T03:37:05.520Z,101200.88
2022-09-07T03:42:07.739Z,101184.19
2022-09-07T03:47:09.979Z,101188.44
2022-09-07T03:52:12.213Z,101181.13
2022-09-07T03:57:14.324Z,101174.78
2022-09-07T04:02:16.774Z,101173.47
2022-09-07T04:07:18.973Z,101163.44
2022-09-07T04:12:21.120Z,101161.00
2022-09-07T04:17:23.222Z,101173.06
2022-09-07T04:22:25.403Z,101169.78
2022-09-07T04:27:27.583Z,101166.41
2022-09-07T04:32:29.696Z,101173.03
2022-09-07T04:37:31.862Z,101177.72
2022-09-07T04:42:34.530Z,101161.16
2022-09-07T04:47:36.727Z,101153.22
2022-09-07T04:52:38.906Z,101160.31
2022-09-07T04:57:41.017Z,101161.06
2022-09-07T05:02:43.410Z,101151.31
2022-09-07T05:07:45.599Z,101145.78
2022-09-07T05:12:47.897Z,101154.56
2022-09-07T05:17:50.035Z,101157.44
2022-09-07T05:22:55.044Z,101155.53
2022-09-07T05:27:57.295Z,101157.44
2022-09-07T05:32:59.469Z,101160.91
2022-09-07T05:38:01.666Z,101173.03
2022-09-07T05:43:03.794Z,101173.59
2022-09-07T05:48:05.917Z,101189.22
2022-09-07T05:53:08.046Z,101181.81
2022-09-07T05:58:10.174Z,101177.59
2022-09-07T06:03:12.465Z,101185.50
2022-09-07T06:08:14.790Z,101188.84
2022-09-07T06:13:16.905Z,101194.38
2022-09-07T06:18:19.057Z,101198.91
2022-09-07T06:23:21.195Z,101199.69
2022-09-07T06:28:34.458Z,101209.50
2022-09-07T06:33:36.621Z,101206.53
2022-09-07T06:38:39.838Z,101201.34
2022-09-07T06:43:45.590Z,101209.75
2022-09-07T06:48:48.411Z,101219.22
2022-09-07T06:53:51.092Z,101222.78
2022-09-07T06:58:54.083Z,101207.44
2022-09-07T07:03:56.181Z,101207.41
2022-09-07T07:08:58.394Z,101221.22
2022-09-07T07:14:00.567Z,101225.72
2022-09-07T07:19:02.745Z,101220.97
2022-09-07T07:24:08.099Z,101225.56
2022-09-07T07:29:10.518Z,101228.06
2022-09-07T07:34:15.809Z,101235.78
2022-09-07T07:44:40.066Z,101248.47
2022-09-07T07:49:42.162Z,101254.63
2022-09-07T07:54:44.509Z,101256.75
2022-09-07T07:59:46.642Z,101258.69
2022-09-07T08:04:48.972Z,101250.16
2022-09-07T08:09:51.140Z,101263.00
2022-09-07T08:14:53.237Z,101259.81
2022-09-07T08:19:55.390Z,101273.06
2022-09-07T08:24:57.515Z,101273.78
2022-09-07T08:30:00.243Z,101268.88
2022-09-07T08:35:02.476Z,101273.22
2022-09-07T08:40:04.974Z,101260.63
2022-09-07T08:45:17.163Z,101261.34
2022-09-07T08:50:40.696Z,101271.78
2022-09-07T08:55:58.392Z,101256.97
2022-09-07T09:06:46.854Z,101266.63
2022-09-07T09:12:06.015Z,101262.31
2022-09-07T09:17:16.035Z,101254.41
2022-09-07T09:22:21.544Z,101255.66
2022-09-07T09:27:23.691Z,101271.81
2022-09-07T09:32:33.199Z,101267.88
2022-09-07T09:37:37.002Z,101246.13
2022-09-07T09:42:39.169Z,101262.50
2022-09-07T09:47:41.389Z,101264.50
2022-09-07T09:52:51.641Z,101248.88
2022-09-07T10:09:00.333Z,101257.56
2022-09-07T10:14:02.573Z,101261.22
2022-09-07T10:19:04.774Z,101270.50
2022-09-07T10:24:06.831Z,101252.97
2022-09-07T10:29:29.209Z,101253.78
2022-09-07T10:34:57.427Z,101245.44
2022-09-07T10:40:20.896Z,101254.47
2022-09-07T10:45:26.242Z,101252.28
2022-09-07T10:50:48.453Z,101254.81
2022-09-07T10:56:05.452Z,101256.31
2022-09-07T11:01:14.650Z,101249.81
2022-09-07T11:06:21.977Z,101255.88
2022-09-07T11:12:02.039Z,101241.41
2022-09-07T11:17:25.795Z,101239.97
2022-09-07T11:22:41.545Z,101238.78
2022-09-07T11:28:28.014Z,101240.66
2022-09-07T11:39:22.088Z,101223.72
2022-09-07T11:44:31.416Z,101217.59
2022-09-07T11:49:37.438Z,101214.97
2022-09-07T12:00:23.608Z,101216.31
2022-09-07T12:06:09.803Z,101200.16
2022-09-07T12:11:31.320Z,101194.31
2022-09-07T12:16:42.643Z,101207.38
2022-09-07T12:21:53.714Z,101209.47
2022-09-07T12:26:56.665Z,101209.50
2022-09-07T12:32:52.576Z,101197.63
2022-09-07T12:37:26.153Z,101201.41
2022-09-07T12:42:33.114Z,101190.94
2022-09-07T12:47:36.211Z,101192.13
2022-09-07T12:52:54.224Z,101195.22
2022-09-07T12:57:59.218Z,101191.31
2022-09-07T13:09:32.584Z,101189.13
2022-09-07T13:14:38.444Z,101186.94
2022-09-07T13:19:46.634Z,101195.28
2022-09-07T13:24:50.456Z,101193.41
2022-09-07T13:29:57.378Z,101190.63
2022-09-07T13:35:02.241Z,101174.72
2022-09-07T13:40:10.431Z,101176.09
2022-09-07T13:45:46.115Z,101173.25
2022-09-07T13:50:48.289Z,101168.38
2022-09-07T13:56:02.073Z,101176.31
2022-09-07T14:01:14.468Z,101173.00
2022-09-07T14:06:16.608Z,101161.41
2022-09-07T14:11:37.871Z,101168.72
2022-09-07T14:16:42.834Z,101161.06
2022-09-07T14:21:54.291Z,101163.66
2022-09-07T14:26:56.821Z,101154.44
2022-09-07T14:32:01.824Z,101146.06
2022-09-07T14:37:07.726Z,101145.84
2022-09-07T14:42:12.408Z,101152.56
2022-09-07T14:47:32.874Z,101146.56
2022-09-07T14:52:43.312Z,101144.31
2022-09-07T14:58:15.046Z,101142.66
2022-09-07T15:03:29.082Z,101140.31
2022-09-07T15:08:40.297Z,101125.66
2022-09-07T15:13:45.047Z,101135.38
2022-09-07T15:18:49.666Z,101149.69
2022-09-07T15:23:53.447Z,101143.84
2022-09-07T15:29:12.407Z,101136.31
2022-09-07T15:34:19.659Z,101133.81
2022-09-07T15:39:25.374Z,101126.91
2022-09-07T15:44:28.563Z,101139.97
2022-09-07T15:49:30.815Z,101130.44
2022-09-07T15:54:35.243Z,101132.44
2022-09-07T15:59:38.561Z,101130.66
2022-09-07T16:04:40.958Z,101118.41
2022-09-07T16:09:43.222Z,101112.56
2022-09-07T16:14:45.357Z,101119.81
2022-09-07T16:19:47.585Z,101126.34
2022-09-07T16:24:49.965Z,101129.81
2022-09-07T16:29:52.043Z,101123.53
2022-09-07T16:34:54.193Z,101118.59
2022-09-07T16:39:56.443Z,101126.13
2022-09-07T16:46:02.506Z,101120.94
2022-09-07T16:50:20.957Z,101118.38
2022-09-07T16:55:23.073Z,101121.03
2022-09-07T17:00:25.234Z,101124.25
2022-09-07T17:05:27.378Z,101124.91
2022-09-07T17:10:29.502Z,101150.44
2022-09-07T17:15:35.574Z,101154.50
2022-09-07T17:20:37.822Z,101161.66
2022-09-07T17:25:39.976Z,101172.44
2022-09-07T17:30:42.328Z,101167.75
2022-09-07T17:35:44.459Z,101164.09
2022-09-07T17:40:46.785Z,101158.88
2022-09-07T17:45:49.046Z,101161.75
2022-09-07T17:51:00.492Z,101158.78
2022-09-07T17:56:04.337Z,101153.44
2022-09-07T18:01:10.470Z,101165.97
2022-09-07T18:06:13.400Z,101155.72
2022-09-07T18:16:39.117Z,101178.69
2022-09-07T18:21:43.147Z,101171.03
2022-09-07T18:26:51.034Z,101178.72
2022-09-07T18:31:54.218Z,101195.59
2022-09-07T18:36:56.531Z,101200.22
2022-09-07T18:41:58.791Z,101191.84
2022-09-07T18:47:01.119Z,101193.81
2022-09-07T18:57:26.076Z,101199.66
2022-09-07T19:02:28.283Z,101200.63
2022-09-07T19:07:30.523Z,101194.06
2022-09-07T19:12:32.740Z,101189.56
2022-09-07T19:17:35.001Z,101201.06
2022-09-07T19:22:37.214Z,101188.03
2022-09-07T19:27:39.390Z,101195.44
2022-09-07T19:32:41.514Z,101181.16
2022-09-07T19:37:43.631Z,101193.38
2022-09-07T19:42:45.893Z,101184.38
2022-09-07T19:47:47.995Z,101181.28
2022-09-07T19:52:50.217Z,101177.47
2022-09-07T19:57:52.510Z,101183.16
2022-09-07T20:02:54.669Z,101185.34
2022-09-07T20:07:57.661Z,101178.75
2022-09-07T20:12:59.656Z,101155.41
2022-09-07T20:18:01.712Z,101150.19
2022-09-07T20:23:03.828Z,101155.09
2022-09-07T20:28:06.048Z,101152.72
2022-09-07T20:33:08.176Z,101142.47
2022-09-07T20:38:10.896Z,101145.88
2022-09-07T20:43:13.134Z,101157.13
2022-09-07T20:48:15.803Z,101152.25
2022-09-07T20:53:17.935Z,101153.78
2022-09-07T20:58:20.023Z,101149.00
2022-09-07T21:03:22.633Z,101146.13
2022-09-07T21:08:24.775Z,101143.00
2022-09-07T21:13:26.923Z,101157.81
2022-09-07T21:18:29.165Z,101171.97
2022-09-07T21:23:33.351Z,101150.59
2022-09-07T21:28:35.522Z,101154.56
2022-09-07T21:33:37.711Z,101149.56
2022-09-07T21:38:41.485Z,101137.31
2022-09-07T21:43:43.620Z,101138.38
2022-09-07T21:48:46.251Z,101133.59
2022-09-07T21:54:00.939Z,101130.97
2022-09-07T21:59:03.069Z,101139.81
2022-09-07T22:04:05.537Z,101139.22
2022-09-07T22:09:07.765Z,101130.47
2022-09-07T22:14:11.670Z,101133.97
2022-09-07T22:19:13.793Z,101128.88
2022-09-07T22:24:16.668Z,101130.34
2022-09-07T22:29:18.796Z,101126.97
2022-09-07T22:34:20.903Z,101134.41
2022-09-07T22:39:23.051Z,101126.13
2022-09-07T22:44:25.190Z,101115.94
2022-09-07T22:49:27.350Z,101120.34
2022-09-07T22:54:29.484Z,101117.06
2022-09-07T22:59:31.643Z,101113.31
2022-09-07T23:04:33.859Z,101106.63
2022-09-07T23:09:35.990Z,101101.22
2022-09-07T23:14:38.107Z,101108.06
2022-09-07T23:19:40.292Z,101099.91
2022-09-07T23:24:42.395Z,101090.34
2022-09-07T23:29:44.523Z,101098.50
2022-09-07T23:34:46.644Z,101071.59
2022-09-07T23:39:48.813Z,101063.19
2022-09-07T23:44:51.021Z,101059.63
2022-09-07T23:49:53.120Z,101046.56
2022-09-07T23:54:55.364Z,101049.56
2022-09-07T23:59:57.627Z,101033.03
